Pagina principale
METAR-TAF:

METAR-TAF

Aeroporti :

Aeroporto militare Cameri

Novara, Italia

latitudine: 45-31N, longitudine: 008-40E, altezza: 178 m

Osservazione

Il bollettino è stato emesso 38 minuti fa, alle 04:55 UTC
Vento 4 kt da nord
Temperature 21°C
Umidità 100%
Pressione 1015 hPa
Visibilità 10 km o più
nessuna nube inferiore a 1500 m e nessun cumulonembo

METAR: LIMN 230455Z 35004KT CAVOK 21/21 Q1015 RMK FEW FEW080 VIS MIN 9999 BLU

Ora: 07:33 (05:33 UTC)

Previsione

Il bollettino è stato emesso 12 ore e 33 minuti fa, alle 17:00 UTC
Previsione valida dal 22 alle 18 UTC al 23 alle 03 UTC
Vento 5 kt da nord/nord-est
Visibilità 10 km o più
nessuna nube inferiore a 1500 m e nessun cumulonembo

TAF: LIMN 221700Z 2218/2303 02005KT CAVOK

Osservazioni e previsioni meteorologiche di più di 4000 aeroporti (messaggi METAR e TAF).

Le stazioni disponibili sono rappresentate dai dischi gialli e rossi sulla carta.

Puntare il mouse per vedere il nome della stazione.

Clicca sopra per visualizzare le osservazioni e previsioni meteorologiche.

Per cambiare la mappa : fare clic sui pulsanti verdi con una croce nera per ingrandire, il pulsante verde con un trattino per diminuire, o sulla freccia verde per le mappe adiacenti.


METAR-TAF: